РПИ Тюмень

РПИ Тюмень

РПИ Тюмень является структурным подразделением дивизиона VATRUS сети VATSIM.

РПИ осуществляет свою деятельность в границах Тюменской области, Ханты-Мансийского и Ямало-Ненецкого автономных округов. Воздушное пространство Тюменского региона, составляющее 1 млн 346 тысяч квадратных километров, простираясь от границы с Казахстаном до Карского моря, является своеобразной границей между Европейской и Азиатской частями России.

Протяженность участков воздушных трасс, проходящих над регионом, насчитывает 48 523 километра, из которых 35 989 километров – это международные воздушные трассы. В зоне ответственности РПИ Тюмень проходит весь транзитный поток воздушных судов по транссибирским и трансполярным маршрутам.

В границах района расположены 19 аэродромов, из них 4 – международных. Более половины этих аэропортов обеспечивают транспортную доступность к нефтяным месторождениям нефти и газа России, являясь стратегическими объектами энергетических компаний.

Средства связи ОВД / ATC Units:

RU-WSC_FSS - Западная Сибирь-Контроль (USSV, USTV FIRs) - 134.500

USTV_CTR - Тюмень-Контроль - РЦ Тюмень - 132.600

USTV_1_CTR - Тюмень-Контроль - Сектор 1 - 132.600

USTV_2_CTR - Тюмень-Контроль - Сектор 2 - 133.600

USTV_3_CTR - Тюмень-Контроль - Сектор 3 (Ханты Юг) - 129.400

USTV_4_CTR - Тюмень-Контроль - Сектор 4 (Сургут-Запад) - 133.300

USTV_5_CTR - Тюмень-Контроль - Сектор 5 (Ханты-Мансийск)- 135.600

USTV_6_CTR - Тюмень-Контроль - Сектор 6 (Сургут) - 132.200

USTV_7_CTR - Тюмень-Контроль - Сектор 7 (Тарко-Сале)  - 133.100

USTV_8_CTR - Тюмень-Контроль - Сектор 8 (Салехард) - 132.300

USTV_9_CTR - Тюмень-Контроль - Сектор 9 (М.Каменный) - 132.900

Ссылки на публичные ресурсы:

ВКонтакте, Discord

Руководитель РПИ

Dmitriy Bannov

Инструкторы РПИ
Andrey Tonkachev * (Senior Student)
Anton Agaev (Instructor)
Dmitriy Bannov * (Controller)
Kirill Rudavin (Instructor)
Maxim Gerasimov (Instructor)
Входит в состав
ЗЦ Екатеринбург

Диспетчеры РПИ

Диспетчер Рейтинг Допуски *
Andrew Zolotuhin Controller USTV_CTR
Anton Agaev Instructor USTV_CTR
Dmitriy Bannov Controller USTV_CTR
Kirill Rudavin Instructor USTV_CTR
Maxim Gerasimov Instructor USTV_CTR
Pavel Pyterikov Senior Student USTV_CTR *
Andrey Bezverkhov Senior Student USRR_APP(USRR+USRO+USRK+USNN)
Andrey Shestakov Senior Student USTR_R_APP
Artem Sergeev Student USTR_GND
Artem Stroganov Student USTR_GND
Egor Gorelov Student USTR_GND
Ivan Zhuravlev Student 2 USRR_R_APP*, USRR_TWR, USTR_TWR
Kirill Ardatov Student 2 USDD_TWR, USTR_TWR, USTR_R_APP*
Konstantin Norkin Student 2 USTR_TWR
Nikita Frolov Student USTR_GND
Nikita Gonjarov Student USHH_TWR*, USTR_GND
Vadim Kvitko Student USTR_GND
Vsevolod Skryabin Student 2 USRR_TWR, USTR_TWR

Аэропорты РПИ

ICAO Город Название Погода
USHQ Белоярский Белоярский
USHB Берёзово Берёзово
USRK Когалым Когалым
USMM Надым Надым
USNN Нижневартовск Нижневартовск USNN 161730Z 12007MPS 9999 OVC007 M07/M08 Q0996 R03/39//33 NOSIG RMK QFE743
USMU Новый Уренгой Новый Уренгой
USRO Ноябрьск Ноябрьск
USHN Нягань Нягань
USDA Сабетта Сабетта USDA 161730Z AUTO 16003MPS 2600 // ///023/// M14/M15 Q0987 RMK QFE739/0986
USDD Салехард Салехард
USHS Советский Советский
USRR Сургут Сургут USRR 161730Z 13006MPS 9999 BKN005 BKN026 M07/M08 Q0992 R07/95//35 TEMPO 2000 SN RMK OBST OBSC QFE739
USTR Тюмень Тюмень USTR 161730Z 19004MPS 4000 -SHSN BKN013 OVC032CB M04/M05 Q0979 R21/390034 R12/////99 TEMPO 27008G15MPS 0500 +SHSN BLSN VV002
USHU Урай Урай
USHH Ханты-Мансийск Ханты-Мансийск USHH 161730Z 09005MPS 1600 1200NE R06/1600U SHSN BKN012CB M04/M05 Q0986 R06/491032 TEMPO 0500 +SHSN BKN003 OVC010CB
USHI Игрим Игрим
USDP Красноселькуп Красноселькуп
USDK Мыс Каменный Мыс Каменный
USDS Тарко-Сале Тарко-Сале